createdAt,value
2023-04-30T19:47:25.226Z,1.63
2023-04-30T19:50:26.746Z,1.65
2023-04-30T19:53:29.081Z,1.67
2023-04-30T19:56:31.969Z,1.80
2023-04-30T19:59:33.458Z,1.80
2023-04-30T20:02:35.177Z,1.83
2023-04-30T20:05:39.313Z,1.70
2023-04-30T20:08:40.824Z,1.67
2023-04-30T20:11:42.350Z,1.60
2023-04-30T20:14:43.851Z,1.70
2023-04-30T20:17:46.036Z,1.55
2023-04-30T20:20:48.044Z,1.88
2023-04-30T20:23:49.610Z,1.50
2023-04-30T20:26:51.194Z,1.70
2023-04-30T20:29:52.683Z,1.80
2023-04-30T20:32:54.243Z,1.80
2023-04-30T20:35:58.035Z,1.70
2023-04-30T20:38:59.569Z,1.70
2023-04-30T20:42:01.525Z,2.03
2023-04-30T20:45:05.812Z,1.75
2023-04-30T20:48:08.545Z,1.55
2023-04-30T20:51:10.320Z,1.55
2023-04-30T20:54:12.011Z,1.50
2023-04-30T20:57:13.526Z,1.50
2023-04-30T21:00:15.190Z,1.88
2023-04-30T21:03:16.816Z,1.60
2023-04-30T21:06:18.826Z,1.90
2023-04-30T21:09:20.354Z,1.58
2023-04-30T21:12:22.874Z,1.40
2023-04-30T21:15:24.759Z,1.60
2023-04-30T21:18:27.557Z,1.50
2023-04-30T21:21:29.130Z,1.70
2023-04-30T21:24:31.154Z,1.42
2023-04-30T21:27:32.914Z,1.65
2023-04-30T21:30:36.157Z,1.40
2023-04-30T21:33:38.690Z,1.40
2023-04-30T21:36:40.518Z,1.50
2023-04-30T21:39:41.983Z,1.50
2023-04-30T21:42:43.734Z,1.70
2023-04-30T21:45:45.503Z,1.60
2023-04-30T21:48:48.176Z,1.42
2023-04-30T21:51:49.684Z,1.40
2023-04-30T21:54:51.418Z,1.63
2023-04-30T21:57:53.182Z,1.63
2023-04-30T22:00:55.134Z,1.42
2023-04-30T22:03:57.158Z,1.48
2023-04-30T22:06:58.813Z,1.38
2023-04-30T22:10:00.366Z,1.50
2023-04-30T22:13:01.961Z,1.23
2023-04-30T22:16:04.889Z,1.25
2023-04-30T22:19:06.703Z,1.30
2023-04-30T22:22:08.185Z,1.38
2023-04-30T22:25:10.405Z,1.20
2023-04-30T22:28:11.983Z,1.30
2023-04-30T22:31:13.493Z,1.30
2023-04-30T22:34:16.690Z,1.33
2023-04-30T22:37:18.183Z,1.35
2023-04-30T22:40:20.477Z,1.30
2023-04-30T22:43:22.039Z,1.33
2023-04-30T22:46:23.553Z,1.70
2023-04-30T22:49:31.218Z,1.27
2023-04-30T22:52:34.797Z,1.20
2023-04-30T22:55:36.489Z,1.23
2023-04-30T22:58:37.994Z,1.40
2023-04-30T23:01:39.608Z,1.42
2023-04-30T23:04:41.131Z,1.20
2023-04-30T23:07:42.644Z,1.45
2023-04-30T23:10:45.167Z,1.30
2023-04-30T23:13:46.989Z,1.40
2023-04-30T23:16:48.473Z,1.20
2023-04-30T23:19:50.100Z,1.30
2023-04-30T23:22:51.614Z,1.20
2023-04-30T23:25:54.065Z,1.20
2023-04-30T23:28:56.325Z,1.20
2023-04-30T23:31:58.008Z,1.20
2023-04-30T23:34:59.629Z,1.10
2023-04-30T23:38:01.488Z,1.33
2023-04-30T23:41:03.135Z,1.15
2023-04-30T23:44:04.780Z,1.38
2023-04-30T23:47:06.891Z,1.38
2023-04-30T23:50:09.033Z,1.00
2023-04-30T23:53:10.529Z,1.15
2023-04-30T23:56:11.989Z,1.05
2023-04-30T23:59:13.861Z,1.23
